createdAt,value
2023-02-15T00:00:18.955Z,88.06
2023-02-15T00:02:47.226Z,88.47
2023-02-15T00:05:16.874Z,88.42
2023-02-15T00:07:44.994Z,88.40
2023-02-15T00:10:13.318Z,88.47
2023-02-15T00:12:41.412Z,88.67
2023-02-15T00:15:10.344Z,88.75
2023-02-15T00:17:38.433Z,88.92
2023-02-15T00:20:08.405Z,88.91
2023-02-15T00:22:37.895Z,88.74
2023-02-15T00:25:06.977Z,88.69
2023-02-15T00:27:35.973Z,89.04
2023-02-15T00:30:04.786Z,89.18
2023-02-15T00:32:33.093Z,89.16
2023-02-15T00:35:01.204Z,89.24
2023-02-15T00:37:29.306Z,89.46
2023-02-15T00:39:58.960Z,89.65
2023-02-15T00:42:27.230Z,89.82
2023-02-15T00:44:55.332Z,89.79
2023-02-15T00:47:23.437Z,89.87
2023-02-15T00:49:51.534Z,89.75
2023-02-15T00:52:19.670Z,89.77
2023-02-15T00:54:47.781Z,89.87
2023-02-15T00:57:17.227Z,89.97
2023-02-15T00:59:45.339Z,90.05
2023-02-15T01:02:13.503Z,89.72
2023-02-15T01:04:41.887Z,89.36
2023-02-15T01:07:10.130Z,89.17
2023-02-15T01:09:38.222Z,89.24
2023-02-15T01:12:06.783Z,88.77
2023-02-15T01:14:36.227Z,89.03
2023-02-15T01:17:04.372Z,89.13
2023-02-15T01:19:32.522Z,89.36
2023-02-15T01:22:00.568Z,89.56
2023-02-15T01:24:28.688Z,89.67
2023-02-15T01:26:56.773Z,89.96
2023-02-15T01:29:24.942Z,89.94
2023-02-15T01:31:54.547Z,89.84
2023-02-15T01:34:22.868Z,89.84
2023-02-15T01:36:50.980Z,89.99
2023-02-15T01:39:19.112Z,90.19
2023-02-15T01:41:47.201Z,90.59
2023-02-15T01:44:50.236Z,89.91
2023-02-15T01:47:28.819Z,89.48
2023-02-15T01:50:09.758Z,89.28
2023-02-15T01:52:47.065Z,89.27
2023-02-15T01:55:15.917Z,89.62
2023-02-15T01:57:47.151Z,89.91
2023-02-15T02:00:17.989Z,90.21
2023-02-15T02:02:51.777Z,90.34
2023-02-15T02:05:20.229Z,90.45
2023-02-15T02:07:52.315Z,90.55
2023-02-15T02:10:24.594Z,90.82
2023-02-15T02:12:58.858Z,90.98
2023-02-15T02:15:41.071Z,90.92
2023-02-15T02:18:26.544Z,91.34
2023-02-15T02:21:39.522Z,91.19
2023-02-15T02:24:50.685Z,91.35
2023-02-15T02:27:32.263Z,91.37
2023-02-15T02:30:37.253Z,91.17
2023-02-15T02:33:43.375Z,90.94
2023-02-15T02:36:24.799Z,90.69
2023-02-15T02:39:13.330Z,90.56
2023-02-15T02:41:57.684Z,90.30
2023-02-15T02:44:33.649Z,89.85
2023-02-15T02:47:09.041Z,89.72
2023-02-15T02:49:41.637Z,89.89
2023-02-15T02:52:40.121Z,90.11
2023-02-15T02:55:15.079Z,90.37
2023-02-15T02:57:55.656Z,90.58
2023-02-15T03:00:27.578Z,90.75
2023-02-15T03:03:06.002Z,90.92
2023-02-15T03:05:42.615Z,90.76
2023-02-15T03:08:12.896Z,90.62
2023-02-15T03:10:43.449Z,90.82
2023-02-15T03:13:11.610Z,91.25
2023-02-15T03:16:02.494Z,91.05
2023-02-15T03:18:37.845Z,90.87
2023-02-15T03:21:10.201Z,91.05
2023-02-15T03:23:41.213Z,90.75
2023-02-15T03:26:12.069Z,90.68
2023-02-15T03:28:48.232Z,90.98
2023-02-15T03:31:20.446Z,91.17
2023-02-15T03:33:57.092Z,90.92
2023-02-15T03:36:38.736Z,90.71
2023-02-15T03:39:17.231Z,90.65
2023-02-15T03:41:56.853Z,90.00
2023-02-15T03:44:31.088Z,88.63
2023-02-15T03:47:08.083Z,88.36
2023-02-15T03:49:46.601Z,87.97
2023-02-15T03:52:17.468Z,87.79
2023-02-15T03:54:47.407Z,87.56
2023-02-15T03:57:40.372Z,88.28
2023-02-15T04:00:33.339Z,88.89
2023-02-15T04:03:28.231Z,89.34
2023-02-15T04:05:56.358Z,89.44
2023-02-15T04:08:46.057Z,89.57
2023-02-15T04:11:13.293Z,89.67
2023-02-15T04:13:41.459Z,89.84
2023-02-15T04:16:08.942Z,90.02
2023-02-15T04:18:57.966Z,90.13
2023-02-15T04:21:45.934Z,89.34
2023-02-15T04:24:33.642Z,88.47
2023-02-15T04:27:03.236Z,88.54
2023-02-15T04:29:33.259Z,88.70
2023-02-15T04:32:03.516Z,88.70
2023-02-15T04:34:31.679Z,87.24
2023-02-15T04:36:59.776Z,87.49
2023-02-15T04:39:29.393Z,87.62
2023-02-15T04:41:57.491Z,86.97
2023-02-15T04:44:25.656Z,85.90
2023-02-15T04:46:53.778Z,85.66
2023-02-15T04:49:21.858Z,85.50
2023-02-15T04:51:49.969Z,86.34
2023-02-15T04:54:18.088Z,86.45
2023-02-15T04:56:47.547Z,87.05
2023-02-15T04:59:16.110Z,87.99
2023-02-15T05:01:44.336Z,88.54
2023-02-15T05:04:12.768Z,88.53
2023-02-15T05:06:40.984Z,88.42
2023-02-15T05:09:09.104Z,88.71
2023-02-15T05:11:37.208Z,89.27
2023-02-15T05:14:07.385Z,89.34
2023-02-15T05:16:35.840Z,89.29
2023-02-15T05:19:04.127Z,89.62
2023-02-15T05:21:33.830Z,89.51
2023-02-15T05:24:21.912Z,89.61
2023-02-15T05:27:07.323Z,89.36
2023-02-15T05:29:36.801Z,89.35
2023-02-15T05:32:05.434Z,89.51
2023-02-15T05:34:33.755Z,89.42
2023-02-15T05:37:01.866Z,89.05
2023-02-15T05:39:29.954Z,89.25
2023-02-15T05:42:01.285Z,89.21
2023-02-15T05:44:29.340Z,89.16
2023-02-15T05:46:58.880Z,89.21
2023-02-15T05:49:27.071Z,89.23
2023-02-15T05:51:55.185Z,88.86
2023-02-15T05:54:23.366Z,89.09
2023-02-15T05:56:51.777Z,88.34
2023-02-15T05:59:19.990Z,88.32
2023-02-15T06:01:48.154Z,88.14
2023-02-15T06:04:17.650Z,88.11
2023-02-15T06:06:45.764Z,88.18
2023-02-15T06:09:15.672Z,89.00
2023-02-15T06:11:43.822Z,89.11
2023-02-15T06:14:11.917Z,88.98
2023-02-15T06:16:40.009Z,88.74
2023-02-15T06:19:08.174Z,88.88
2023-02-15T06:21:37.747Z,88.24
2023-02-15T06:24:06.134Z,87.55
2023-02-15T06:26:34.240Z,87.28
2023-02-15T06:29:02.523Z,87.27
2023-02-15T06:31:30.701Z,87.17
2023-02-15T06:34:01.924Z,87.44
2023-02-15T06:36:30.479Z,87.10
2023-02-15T06:39:00.133Z,87.06
2023-02-15T06:41:28.358Z,87.12
2023-02-15T06:43:56.537Z,86.98
2023-02-15T06:46:24.776Z,86.45
2023-02-15T06:48:52.906Z,85.80
2023-02-15T06:51:21.096Z,85.91
2023-02-15T06:53:49.187Z,85.96
2023-02-15T06:56:18.704Z,86.28
2023-02-15T06:58:47.101Z,86.69
2023-02-15T07:01:15.282Z,86.06
2023-02-15T07:03:43.768Z,85.58
2023-02-15T07:06:12.308Z,86.37
2023-02-15T07:08:41.440Z,86.77
2023-02-15T07:11:27.024Z,87.33
2023-02-15T07:13:56.485Z,86.55
2023-02-15T07:16:24.649Z,85.47
2023-02-15T07:18:52.775Z,85.84
2023-02-15T07:21:21.022Z,85.04
2023-02-15T07:23:49.107Z,83.51
2023-02-15T07:26:17.198Z,82.75
2023-02-15T07:28:45.293Z,82.88
2023-02-15T07:31:14.883Z,83.59
2023-02-15T07:33:43.338Z,84.23
2023-02-15T07:36:13.016Z,84.55
2023-02-15T07:38:43.475Z,83.27
2023-02-15T07:41:14.981Z,81.56
2023-02-15T07:43:45.848Z,82.48
2023-02-15T07:46:18.850Z,83.28
2023-02-15T07:48:47.449Z,83.17
2023-02-15T07:51:16.841Z,82.14
2023-02-15T07:53:45.417Z,80.51
2023-02-15T07:56:15.938Z,79.06
2023-02-15T07:58:53.280Z,79.51
2023-02-15T08:01:26.250Z,79.33
2023-02-15T08:03:55.351Z,76.51
2023-02-15T08:06:25.387Z,77.05
2023-02-15T08:08:54.011Z,75.93
2023-02-15T08:11:29.929Z,75.44
2023-02-15T08:14:01.007Z,76.17
2023-02-15T08:16:34.388Z,76.07
2023-02-15T08:19:07.145Z,74.59
2023-02-15T08:21:38.832Z,74.32
2023-02-15T08:24:08.706Z,74.76
2023-02-15T08:26:37.428Z,74.94
2023-02-15T08:29:05.805Z,75.17
2023-02-15T08:31:38.146Z,75.39
2023-02-15T08:34:07.550Z,74.57
2023-02-15T08:36:36.086Z,74.30
2023-02-15T08:39:07.914Z,73.83
2023-02-15T08:41:38.260Z,73.31
2023-02-15T08:44:09.668Z,71.89
2023-02-15T08:46:42.553Z,72.67
2023-02-15T08:49:13.549Z,71.10
2023-02-15T08:51:42.033Z,70.99
2023-02-15T08:54:14.004Z,71.41
2023-02-15T08:56:44.676Z,71.23
2023-02-15T08:59:18.247Z,71.20
2023-02-15T09:01:49.725Z,70.70
2023-02-15T09:04:19.324Z,70.05
2023-02-15T09:06:49.927Z,69.82
2023-02-15T09:09:19.435Z,69.55
2023-02-15T09:11:54.130Z,69.78
2023-02-15T09:14:25.390Z,69.87
2023-02-15T09:16:56.055Z,68.93
2023-02-15T09:19:26.366Z,69.31
2023-02-15T09:21:55.261Z,69.33
2023-02-15T09:24:23.995Z,69.39
2023-02-15T09:26:52.199Z,69.10
2023-02-15T09:29:26.006Z,67.02
2023-02-15T09:31:55.550Z,66.82
2023-02-15T09:34:25.297Z,66.30
2023-02-15T09:36:54.421Z,66.44
2023-02-15T09:39:25.714Z,66.25
2023-02-15T09:42:44.633Z,65.96
2023-02-15T09:45:28.934Z,64.33
2023-02-15T09:48:40.755Z,65.72
2023-02-15T09:51:50.564Z,65.00
2023-02-15T09:54:52.345Z,64.92
2023-02-15T09:57:37.302Z,64.86
2023-02-15T10:00:21.274Z,64.46
2023-02-15T10:03:21.189Z,64.72
2023-02-15T10:06:31.700Z,63.87
2023-02-15T10:09:27.419Z,64.27
2023-02-15T10:12:21.816Z,63.87
2023-02-15T10:15:30.577Z,63.23
2023-02-15T10:18:21.705Z,62.75
2023-02-15T10:21:05.676Z,63.53
2023-02-15T10:24:01.043Z,63.21
2023-02-15T10:26:39.460Z,62.45
2023-02-15T10:29:18.249Z,62.37
2023-02-15T10:31:54.133Z,62.85
2023-02-15T10:34:36.762Z,62.49
2023-02-15T10:37:36.194Z,61.90
2023-02-15T10:40:16.891Z,61.08
2023-02-15T10:43:16.346Z,61.03
2023-02-15T10:46:03.738Z,61.05
2023-02-15T10:49:24.920Z,59.42
2023-02-15T10:52:30.244Z,59.08
2023-02-15T10:55:12.588Z,59.50
2023-02-15T10:57:59.723Z,59.04
2023-02-15T11:00:39.995Z,58.51
2023-02-15T11:03:34.132Z,58.30
2023-02-15T11:06:11.186Z,58.90
2023-02-15T11:08:46.042Z,59.51
2023-02-15T11:11:23.437Z,59.10
2023-02-15T11:13:58.746Z,59.02
2023-02-15T11:16:33.089Z,58.39
2023-02-15T11:19:10.679Z,58.92
2023-02-15T11:21:45.419Z,58.91
2023-02-15T11:24:20.905Z,59.36
2023-02-15T11:26:59.428Z,59.27
2023-02-15T11:29:35.444Z,59.00
2023-02-15T11:32:19.835Z,59.29
2023-02-15T11:34:55.757Z,59.96
2023-02-15T11:37:34.507Z,60.25
2023-02-15T11:40:20.335Z,60.35
2023-02-15T11:42:51.525Z,59.53
2023-02-15T11:45:29.471Z,59.93
2023-02-15T11:47:59.216Z,60.32
2023-02-15T11:50:31.237Z,60.23
2023-02-15T11:53:04.157Z,60.64
2023-02-15T11:55:35.891Z,60.09
2023-02-15T11:58:39.805Z,60.18
2023-02-15T12:01:18.796Z,59.81
2023-02-15T12:03:50.789Z,60.14
2023-02-15T12:06:26.316Z,59.86
2023-02-15T12:09:05.701Z,60.40
2023-02-15T12:11:39.697Z,60.49
2023-02-15T12:14:10.732Z,59.76
2023-02-15T12:16:47.573Z,59.32
2023-02-15T12:19:32.537Z,59.20
2023-02-15T12:22:04.210Z,59.20
2023-02-15T12:24:40.321Z,58.66
2023-02-15T12:27:20.152Z,58.27
2023-02-15T12:29:53.580Z,58.44
2023-02-15T12:32:27.248Z,58.79
2023-02-15T12:35:03.836Z,58.58
2023-02-15T12:37:35.751Z,58.68
2023-02-15T12:40:21.981Z,57.88
2023-02-15T12:42:51.517Z,57.55
2023-02-15T12:45:27.362Z,57.94
2023-02-15T12:48:17.776Z,57.20
2023-02-15T12:50:54.962Z,57.23
2023-02-15T12:53:32.458Z,56.52
2023-02-15T12:56:02.809Z,55.09
2023-02-15T12:58:38.205Z,52.88
2023-02-15T13:01:20.347Z,51.13
2023-02-15T13:04:01.500Z,48.36
2023-02-15T13:06:34.045Z,48.04
2023-02-15T13:09:21.137Z,47.03
2023-02-15T13:12:20.252Z,47.38
2023-02-15T13:15:00.244Z,49.07
2023-02-15T13:17:32.088Z,49.14
2023-02-15T13:20:10.746Z,50.05
2023-02-15T13:22:45.246Z,50.87
2023-02-15T13:25:21.236Z,51.03
2023-02-15T13:27:55.082Z,50.95
2023-02-15T13:30:35.840Z,50.47
2023-02-15T13:33:08.573Z,50.19
2023-02-15T13:35:49.211Z,50.44
2023-02-15T13:38:57.583Z,50.70
2023-02-15T13:41:36.497Z,50.90
2023-02-15T13:44:19.706Z,51.64
2023-02-15T13:47:12.909Z,52.33
2023-02-15T13:49:58.200Z,52.39
2023-02-15T13:52:29.390Z,52.63
2023-02-15T13:55:27.247Z,52.05
2023-02-15T13:58:48.989Z,52.44
2023-02-15T14:01:26.809Z,52.63
2023-02-15T14:04:26.619Z,52.80
2023-02-15T14:07:31.018Z,53.10
2023-02-15T14:10:25.044Z,52.19
2023-02-15T14:13:14.583Z,51.96
2023-02-15T14:15:51.551Z,52.58
2023-02-15T14:18:32.514Z,52.76
2023-02-15T14:21:12.537Z,53.07
2023-02-15T14:24:10.720Z,53.08
2023-02-15T14:26:51.414Z,53.72
2023-02-15T14:29:44.481Z,54.22
2023-02-15T14:32:25.513Z,54.34
2023-02-15T14:34:59.012Z,54.55
2023-02-15T14:37:44.614Z,52.51
2023-02-15T14:40:45.525Z,52.56
2023-02-15T14:43:26.780Z,52.25
2023-02-15T14:45:58.116Z,52.74
2023-02-15T14:48:33.311Z,53.43
2023-02-15T14:51:02.397Z,53.60
2023-02-15T14:53:42.896Z,53.01
2023-02-15T14:56:26.937Z,53.14
2023-02-15T14:59:21.825Z,51.81
2023-02-15T15:02:00.547Z,51.19
2023-02-15T15:04:35.181Z,51.03
2023-02-15T15:07:16.185Z,51.31
2023-02-15T15:09:59.903Z,50.93
2023-02-15T15:12:42.369Z,51.09
2023-02-15T15:15:15.824Z,51.20
2023-02-15T15:18:02.045Z,52.07
2023-02-15T15:20:51.603Z,52.58
2023-02-15T15:23:45.077Z,53.22
2023-02-15T15:26:37.759Z,53.58
2023-02-15T15:29:08.762Z,53.97
2023-02-15T15:31:53.082Z,54.31
2023-02-15T15:35:07.427Z,54.23
2023-02-15T15:38:30.086Z,54.68
2023-02-15T15:41:19.647Z,54.93
2023-02-15T15:45:05.182Z,55.90
2023-02-15T15:48:07.427Z,56.49
2023-02-15T15:50:36.748Z,56.74
2023-02-15T15:53:07.205Z,57.29
2023-02-15T15:55:36.648Z,57.96
2023-02-15T15:58:09.101Z,58.33
2023-02-15T16:00:48.472Z,58.80
2023-02-15T16:03:22.068Z,59.27
2023-02-15T16:05:53.792Z,59.52
2023-02-15T16:08:30.580Z,60.14
2023-02-15T16:11:00.118Z,60.51
2023-02-15T16:13:29.188Z,60.84
2023-02-15T16:15:58.750Z,61.17
2023-02-15T16:18:29.693Z,61.55
2023-02-15T16:21:01.507Z,62.18
2023-02-15T16:24:08.822Z,62.74
2023-02-15T16:27:21.264Z,63.03
2023-02-15T16:29:49.344Z,63.04
2023-02-15T16:32:23.171Z,63.59
2023-02-15T16:34:59.983Z,63.96
2023-02-15T16:37:33.371Z,64.11
2023-02-15T16:40:02.214Z,64.47
2023-02-15T16:42:30.579Z,64.84
2023-02-15T16:45:09.186Z,65.25
2023-02-15T16:47:45.711Z,65.39
2023-02-15T16:50:22.685Z,65.74
2023-02-15T16:52:52.401Z,65.88
2023-02-15T16:55:26.271Z,66.12
2023-02-15T16:58:01.772Z,66.30
2023-02-15T17:00:36.517Z,66.79
2023-02-15T17:03:23.912Z,67.14
2023-02-15T17:05:55.944Z,67.82
2023-02-15T17:08:30.360Z,67.82
2023-02-15T17:11:15.794Z,67.68
2023-02-15T17:14:16.479Z,67.67
2023-02-15T17:16:50.326Z,67.85
2023-02-15T17:19:25.257Z,67.98
2023-02-15T17:21:57.404Z,68.23
2023-02-15T17:24:37.616Z,68.71
2023-02-15T17:27:13.955Z,68.66
2023-02-15T17:29:49.272Z,68.92
2023-02-15T17:32:21.590Z,69.33
2023-02-15T17:35:18.286Z,69.57
2023-02-15T17:37:49.160Z,70.01
2023-02-15T17:40:24.544Z,70.35
2023-02-15T17:42:53.275Z,70.57
2023-02-15T17:45:23.309Z,70.80
2023-02-15T17:47:52.074Z,71.01
2023-02-15T17:50:26.703Z,70.97
2023-02-15T17:52:57.887Z,70.46
2023-02-15T17:55:43.448Z,70.43
2023-02-15T17:58:14.880Z,70.53
2023-02-15T18:01:04.612Z,71.29
2023-02-15T18:04:01.244Z,71.45
2023-02-15T18:06:48.406Z,71.83
2023-02-15T18:09:37.189Z,72.08
2023-02-15T18:12:20.402Z,72.41
2023-02-15T18:14:48.575Z,72.55
2023-02-15T18:17:19.013Z,72.50
2023-02-15T18:19:48.175Z,72.25
2023-02-15T18:22:20.166Z,72.68
2023-02-15T18:24:50.866Z,71.29
2023-02-15T18:27:18.930Z,70.97
2023-02-15T18:29:48.517Z,71.25
2023-02-15T18:32:23.360Z,71.67
2023-02-15T18:34:52.116Z,71.83
2023-02-15T18:37:23.504Z,71.71
2023-02-15T18:39:54.198Z,71.99
2023-02-15T18:42:27.026Z,72.30
2023-02-15T18:44:58.879Z,72.90
2023-02-15T18:47:27.550Z,73.07
2023-02-15T18:49:56.552Z,73.62
2023-02-15T18:52:34.298Z,73.90
2023-02-15T18:55:07.932Z,74.20
2023-02-15T18:57:36.120Z,74.50
2023-02-15T19:00:05.842Z,74.83
2023-02-15T19:02:33.985Z,75.33
2023-02-15T19:05:02.116Z,75.42
2023-02-15T19:07:35.857Z,75.62
2023-02-15T19:10:09.863Z,76.00
2023-02-15T19:12:37.989Z,76.18
2023-02-15T19:15:08.219Z,76.19
2023-02-15T19:17:36.570Z,76.19
2023-02-15T19:20:04.903Z,76.51
2023-02-15T19:22:35.071Z,76.42
2023-02-15T19:25:07.013Z,75.86
2023-02-15T19:27:37.092Z,76.20
2023-02-15T19:30:16.271Z,76.83
2023-02-15T19:32:44.945Z,76.81
2023-02-15T19:35:16.527Z,77.14
2023-02-15T19:37:50.832Z,77.53
2023-02-15T19:40:24.208Z,77.16
2023-02-15T19:42:52.910Z,77.23
2023-02-15T19:45:24.249Z,77.76
2023-02-15T19:47:53.939Z,77.99
2023-02-15T19:50:25.510Z,78.11
2023-02-15T19:52:55.189Z,77.66
2023-02-15T19:55:26.602Z,77.80
2023-02-15T19:57:56.904Z,78.02
2023-02-15T20:00:29.135Z,78.51
2023-02-15T20:02:59.448Z,78.64
2023-02-15T20:05:30.060Z,78.66
2023-02-15T20:08:00.019Z,78.62
2023-02-15T20:10:31.358Z,78.29
2023-02-15T20:13:00.049Z,78.73
2023-02-15T20:15:31.336Z,78.90
2023-02-15T20:18:03.895Z,78.74
2023-02-15T20:20:38.397Z,79.45
2023-02-15T20:23:18.186Z,79.84
2023-02-15T20:25:46.683Z,79.54
2023-02-15T20:28:20.779Z,78.69
2023-02-15T20:30:49.888Z,78.94
2023-02-15T20:33:19.281Z,78.73
2023-02-15T20:35:49.208Z,77.19
2023-02-15T20:38:24.755Z,76.64
2023-02-15T20:41:12.103Z,75.19
2023-02-15T20:43:40.721Z,75.75
2023-02-15T20:46:09.133Z,75.96
2023-02-15T20:48:37.590Z,74.10
2023-02-15T20:51:06.951Z,73.63
2023-02-15T20:53:36.510Z,73.61
2023-02-15T20:56:04.956Z,72.26
2023-02-15T20:58:33.206Z,72.24
2023-02-15T21:01:01.618Z,72.61
2023-02-15T21:03:32.494Z,72.06
2023-02-15T21:06:01.755Z,71.39
2023-02-15T21:08:29.886Z,71.66
2023-02-15T21:11:01.670Z,71.38
2023-02-15T21:13:34.560Z,71.81
2023-02-15T21:16:04.205Z,72.30
2023-02-15T21:18:34.939Z,72.26
2023-02-15T21:21:06.526Z,72.08
2023-02-15T21:23:40.430Z,71.38
2023-02-15T21:26:19.452Z,71.55
2023-02-15T21:28:49.128Z,71.97
2023-02-15T21:31:19.744Z,71.29
2023-02-15T21:33:47.981Z,71.91
2023-02-15T21:36:19.374Z,71.36
2023-02-15T21:38:49.631Z,71.94
2023-02-15T21:41:40.224Z,71.59
2023-02-15T21:44:35.530Z,70.82
2023-02-15T21:47:21.230Z,71.37
2023-02-15T21:49:49.326Z,71.28
2023-02-15T21:52:23.076Z,71.90
2023-02-15T21:54:51.169Z,71.12
2023-02-15T21:57:22.376Z,70.86
2023-02-15T21:59:50.711Z,70.99
2023-02-15T22:02:30.320Z,70.34
2023-02-15T22:05:00.709Z,69.89
2023-02-15T22:07:28.857Z,70.53
2023-02-15T22:09:56.962Z,71.62
2023-02-15T22:12:26.453Z,71.70
2023-02-15T22:14:55.299Z,71.88
2023-02-15T22:17:29.317Z,71.37
2023-02-15T22:19:58.456Z,70.99
2023-02-15T22:22:26.904Z,68.95
2023-02-15T22:24:55.029Z,69.33
2023-02-15T22:27:29.517Z,70.06
2023-02-15T22:29:58.776Z,70.34
2023-02-15T22:32:28.367Z,69.09
2023-02-15T22:34:56.551Z,70.50
2023-02-15T22:37:24.614Z,71.08
2023-02-15T22:39:52.697Z,69.96
2023-02-15T22:42:26.172Z,70.92
2023-02-15T22:44:58.100Z,71.69
2023-02-15T22:47:32.056Z,71.20
2023-02-15T22:50:00.216Z,71.02
2023-02-15T22:52:28.317Z,71.50
2023-02-15T22:54:56.472Z,71.57
2023-02-15T22:57:32.004Z,71.37
2023-02-15T23:00:02.067Z,72.00
2023-02-15T23:02:30.239Z,72.60
2023-02-15T23:04:58.398Z,72.73
2023-02-15T23:07:26.509Z,73.00
2023-02-15T23:09:54.633Z,71.87
2023-02-15T23:12:28.445Z,72.18
2023-02-15T23:14:58.373Z,72.27
2023-02-15T23:17:27.916Z,71.95
2023-02-15T23:19:56.018Z,72.12
2023-02-15T23:22:24.143Z,71.80
2023-02-15T23:24:54.316Z,72.66
2023-02-15T23:27:40.180Z,72.48
2023-02-15T23:30:15.666Z,72.55
2023-02-15T23:32:45.162Z,72.86
2023-02-15T23:35:16.698Z,72.55
2023-02-15T23:37:45.193Z,73.04
2023-02-15T23:40:33.841Z,73.57
2023-02-15T23:43:01.970Z,73.58
2023-02-15T23:45:32.516Z,72.82
2023-02-15T23:48:19.731Z,72.01
2023-02-15T23:50:47.891Z,72.53
2023-02-15T23:53:15.977Z,72.80
2023-02-15T23:55:45.742Z,72.06
2023-02-15T23:58:20.151Z,71.97
